EYPA/PLQ METAR and TAF weather

Enter ICAO airport designator
Station Type Date Time Source
EYPA METAR 2019/02/23 16:50 UTC NOAA

EYPA 231650Z 27007KT 220V330 9999 OVC019 02/M01 Q1037 R19/0///95


Station Type Date Time Source
EYPA Decoded METAR 2019/02/23 16:50 UTC NOAA

Palanga Intl., Lithuania (EYPA) 55-55-12N 021-03E
Feb 23, 2019 - 11:50 AM EST / 2019.02.23 1650 UTC
Wind: from the W (270 degrees) at 8 MPH (7 KT) (direction variable):0
Visibility: greater than 7 mile(s):0
Sky conditions: overcast
Temperature: 35 F (2 C)
Windchill: 28 F (-2 C):1
Dew Point: 30 F (-1 C)
Relative Humidity: 80%
Pressure (altimeter): 30.62 in. Hg (1037 hPa)
ob: EYPA 231650Z 27007KT 220V330 9999 OVC019 02/M01 Q1037 R19/0///95
cycle: 17

Station Type Date Time Source
EYPA TAF 2019/02/23 18:03 UTC NOAA

TAF EYPA 231702Z 2318/2418 28010KT 6000 OVC015
TEMPO 2318/2324 BKN005 OVC010
BECMG 2400/2401 BKN005
TEMPO 2401/2409 1500 BR BKN002
BECMG 2412/2413 NSC


Example: see airport list